FW2154 Weather Reports


time (UTC)temp
C
wind
direction
speed
KPH
gust
KPH
rain 1hr
cm
rain 24hr
cm
rain mn
cm
humidity
%
barometer
mb
20200229103116 7 337 1.6 3.2 0.00 0.00 0.00 81 1017.9
20200229102116 7 337 1.6 1.6 0.00 0.00 0.00 82 1018.1
20200229101115 6 0.0 1.6 0.00 0.00 0.00 82 1018.3
20200229100116 6 337 1.6 1.6 0.00 0.00 0.00 81 1018.3
20200229095115 6 0.0 1.6 0.00 0.00 0.00 80 1018.4
20200229094116 6 0.0 0.0 0.00 0.00 0.00 80 1018.5
20200229093115 7 0.0 0.0 0.00 0.00 0.00 79 1018.7
20200229092116 7 0.0 0.0 0.00 0.00 0.00 80 1019.1
20200229091115 7 0.0 0.0 0.00 0.00 0.00 78 1019.2
20200229090115 8 0.0 1.6 0.00 0.00 0.00 77 1019.4
20200229085117 8 337 3.2 4.8 0.00 0.00 0.00 77 1019.6
20200229084119 8 225 3.2 3.2 0.00 0.00 0.00 77 1019.8
20200229083117 8 225 3.2 3.2 0.00 0.00 0.00 78 1019.8
20200229082212 8 225 3.2 3.2 0.00 0.00 0.00 78 1019.9
20200229081117 8 225 1.6 3.2 0.00 0.00 0.00 80 1019.8
20200229080117 8 225 1.6 3.2 0.00 0.00 0.00 81 1019.7
20200229075117 8 225 1.6 1.6 0.00 0.00 0.00 80 1019.6
20200229074115 8 0.0 1.6 0.00 0.00 0.00 82 1019.6
20200229073117 8 0.0 1.6 0.00 0.00 0.00 82 1019.6
20200229072117 8 225 3.2 3.2 0.00 0.00 0.00 82 1019.8
20200229071118 8 225 1.6 1.6 0.00 0.00 0.00 80 1019.7
20200229070118 8 225 1.6 3.2 0.00 0.00 0.00 79 1019.7
20200229065116 9 225 1.6 3.2 0.00 0.00 0.00 79 1019.7
20200229064116 9 0.0 1.6 0.00 0.00 0.00 80 1019.8
20200229063115 9 225 1.6 3.2 0.00 0.00 0.00 81 1020.0
20200229062116 10 0.0 1.6 0.00 0.00 0.00 81 1020.2
20200229061116 10 225 1.6 3.2 0.00 0.00 0.00 80 1020.3
20200229060120 11 225 1.6 3.2 0.00 0.00 0.00 82 1020.3
20200229055116 11 0.0 0.0 0.00 0.00 0.00 84 1020.5
20200229054116 11 225 1.6 3.2 0.00 0.00 0.00 85 1020.4
20200229053121 11 225 4.8 4.8 0.00 0.00 0.00 84 1020.3
20200229052115 11 225 1.6 3.2 0.00 0.00 0.00 84 1020.4
20200229051116 12 0.0 0.0 0.00 0.00 0.00 84 1020.3
20200229050116 12 0.0 1.6 0.00 0.00 0.00 83 1020.5
20200229045115 13 225 1.6 3.2 0.00 0.00 0.00 79 1020.4
20200229044116 14 0.0 1.6 0.00 0.00 0.00 80 1020.1
20200229043115 15 270 1.6 1.6 0.00 0.00 0.00 82 1020.0
20200229042116 15 270 1.6 4.8 0.00 0.00 0.00 82 1020.1
20200229041117 15 247 4.8 6.4 0.00 0.00 0.00 81 1020.0
20200229040144 15 247 3.2 4.8 0.00 0.00 0.00 80 1020.0
20200229035126 15 247 3.2 4.8 0.00 0.00 0.00 80 1020.2
20200229034145 15 247 3.2 4.8 0.00 0.00 0.00 79 1020.3
20200229033118 15 247 3.2 4.8 0.00 0.00 0.00 79 1020.2
20200229032121 16 247 1.6 3.2 0.00 0.00 0.00 78 1020.2
20200229031116 16 247 3.2 6.4 0.00 0.00 0.00 77 1020.2
20200229025147 16 247 6.4 11.3 0.00 0.00 0.00 74 1020.0
20200229024126 17 270 4.8 6.4 0.00 0.00 0.00 74 1019.8
20200229023141 17 270 4.8 6.4 0.00 0.00 0.00 72 1019.6
20200229022116 17 270 3.2 4.8 0.00 0.00 0.00 71 1019.3
20200229021115 17 270 1.6 3.2 0.00 0.00 0.00 69 1019.4
20200229020204 18 270 1.6 3.2 0.00 0.00 0.00 63 1019.4
20200229015116 19 0.0 1.6 0.00 0.00 0.00 59 1019.3
20200229014118 20 0.0 1.6 0.00 0.00 0.00 53 1019.3
20200229013129 21 270 1.6 3.2 0.00 0.00 0.00 47 1019.3
20200229012117 21 337 1.6 1.6 0.00 0.00 0.00 34 1019.3
20200229011117 22 337 6.4 8.0 0.00 0.00 0.00 33 1019.4
20200229010118 22 337 8.0 14.5 0.00 0.00 0.00 31 1019.3
20200229005117 23 337 6.4 8.0 0.00 0.00 0.00 30 1019.4
20200229004117 23 337 9.7 14.5 0.00 0.00 0.00 28 1019.5
20200229003117 23 0 11.3 14.5 0.00 0.00 0.00 29 1019.5
20200229002117 23 337 8.0 12.9 0.00 0.00 0.00 30 1019.6
20200229001117 23 0 12.9 14.5 0.00 0.00 0.00 30 1019.7
20200229000117 23 0 12.9 17.7 0.00 0.00 0.00 30 1019.8
20200228235117 23 337 9.7 14.5 0.00 0.00 0.00 30 1019.7
20200228234115 24 337 9.7 14.5 0.00 0.00 0.00 29 1019.8
20200228233117 24 337 9.7 12.9 0.00 0.00 0.00 30 1020.0
20200228232117 24 337 11.3 14.5 0.00 0.00 0.00 29 1019.8
20200228231117 25 0 12.9 16.1 0.00 0.00 0.00 28 1019.8
20200228230117 25 270 6.4 11.3 0.00 0.00 0.00 25 1019.8
20200228225117 25 247 8.0 11.3 0.00 0.00 0.00 24 1020.0
20200228224117 23 270 6.4 12.9 0.00 0.00 0.00 38 1020.0
20200228223117 23 202 8.0 11.3 0.00 0.00 0.00 40 1020.1
20200228222116 22 180 9.7 14.5 0.00 0.00 0.00 42 1020.1
20200228221117 23 202 8.0 12.9 0.00 0.00 0.00 35 1020.3
20200228220118 23 180 8.0 9.7 0.00 0.00 0.00 40 1020.3
20200228215117 23 202 11.3 17.7 0.00 0.00 0.00 37 1020.5
20200228214118 23 202 9.7 14.5 0.00 0.00 0.00 40 1020.4
20200228213117 23 202 12.9 17.7 0.00 0.00 0.00 38 1020.4
20200228212152 23 180 11.3 16.1 0.00 0.00 0.00 37 1020.1
20200228211117 24 225 8.0 11.3 0.00 0.00 0.00 38 1020.2
20200228210117 24 202 14.5 20.9 0.00 0.00 0.00 39 1020.2
20200228205116 23 180 9.7 16.1 0.00 0.00 0.00 42 1020.3
20200228204117 23 202 11.3 16.1 0.00 0.00 0.00 42 1020.3
20200228203117 23 202 9.7 14.5 0.00 0.00 0.00 44 1020.3
20200228202117 23 202 11.3 14.5 0.00 0.00 0.00 44 1020.2
20200228201116 23 225 6.4 11.3 0.00 0.00 0.00 44 1020.3
20200228200117 23 180 11.3 14.5 0.00 0.00 0.00 45 1020.3
20200228195117 22 202 11.3 16.1 0.00 0.00 0.00 40 1020.8
20200228194116 22 202 8.0 12.9 0.00 0.00 0.00 46 1020.8
20200228193116 22 202 9.7 14.5 0.00 0.00 0.00 49 1020.8
20200228192117 23 180 9.7 14.5 0.00 0.00 0.00 46 1020.7
20200228191116 23 202 6.4 9.7 0.00 0.00 0.00 44 1021.0
20200228190117 23 202 4.8 9.7 0.00 0.00 0.00 43 1021.1
20200228185116 22 202 3.2 4.8 0.00 0.00 0.00 45 1021.2
20200228184118 21 180 3.2 4.8 0.00 0.00 0.00 45 1021.3
20200228183116 21 157 3.2 4.8 0.00 0.00 0.00 51 1021.5
20200228182116 21 202 3.2 4.8 0.00 0.00 0.00 55 1021.3
20200228181121 20 202 3.2 3.2 0.00 0.00 0.00 57 1021.4
20200228180116 20 202 3.2 8.0 0.00 0.00 0.00 61 1021.6
20200228175116 19 202 1.6 1.6 0.00 0.00 0.00 63 1021.4
20200228174116 18 202 1.6 3.2 0.00 0.00 0.00 65 1021.4
20200228173116 18 202 4.8 6.4 0.00 0.00 0.00 66 1021.5
20200228172116 18 225 3.2 4.8 0.00 0.00 0.00 67 1021.6
20200228171116 17 157 1.6 3.2 0.00 0.00 0.00 69 1021.7
20200228170117 17 157 4.8 6.4 0.00 0.00 0.00 71 1021.7
20200228165116 17 157 4.8 8.0 0.00 0.00 0.00 72 1021.7
20200228164116 16 180 1.6 1.6 0.00 0.00 0.00 75 1021.7
20200228163117 16 22 1.6 1.6 0.00 0.00 0.00 75 1021.5
20200228162116 15 22 1.6 3.2 0.00 0.00 0.00 77 1021.5
20200228161116 13 0 1.6 3.2 0.00 0.00 0.00 80 1021.4
20200228160116 13 0 3.2 3.2 0.00 0.00 0.00 81 1021.3
20200228155116 12 0 1.6 1.6 0.00 0.00 0.00 82 1021.2
20200228154116 12 0.0 1.6 0.00 0.00 0.00 83 1021.1
20200228153116 11 0 3.2 4.8 0.00 0.00 0.00 84 1020.8
20200228152116 11 22 4.8 4.8 0.00 0.00 0.00 85 1020.8
20200228151116 11 135 3.2 3.2 0.00 0.00 0.00 85 1020.6
20200228150116 10 0.0 0.0 0.00 0.00 0.00 85 1020.5
20200228145118 10 0.0 0.0 0.00 0.00 0.00 86 1020.5
20200228144116 10 0.0 0.0 0.00 0.00 0.00 87 1020.3
20200228143151 10 0.0 0.0 0.00 0.00 0.00 86 1020.4
20200228142115 10 0.0 0.0 0.00 0.00 0.00 86 1020.5
20200228141115 9 0.0 0.0 0.00 0.00 0.00 86 1020.3
20200228140115 10 0.0 0.0 0.00 0.00 0.00 86 1020.2
20200228135115 10 0.0 0.0 0.00 0.00 0.00 86 1020.0
20200228134115 10 0.0 0.0 0.00 0.00 0.00 87 1019.6
20200228133116 10 0.0 0.0 0.00 0.00 0.00 87 1019.5
20200228132116 10 0.0 0.0 0.00 0.00 0.00 86 1019.6
20200228131115 10 0.0 0.0 0.00 0.00 0.00 86 1019.6
20200228130115 10 135 1.6 1.6 0.00 0.00 0.00 84 1019.5
20200228125115 10 135 1.6 3.2 0.00 0.00 0.00 83 1019.8
20200228124115 11 135 1.6 1.6 0.00 0.00 0.00 81 1019.5
20200228123116 13 202 3.2 3.2 0.00 0.00 0.00 84 1019.5
20200228122115 13 202 1.6 1.6 0.00 0.00 0.00 84 1019.5
20200228121115 13 202 1.6 3.2 0.00 0.00 0.00 83 1019.6
20200228120115 13 202 1.6 1.6 0.00 0.00 0.00 83 1019.6
20200228115115 13 202 3.2 4.8 0.00 0.00 0.00 83 1019.5
20200228114115 13 202 3.2 4.8 0.00 0.00 0.00 83 1019.6
20200228113115 13 202 4.8 6.4 0.00 0.00 0.00 82 1019.6
20200228112116 13 225 4.8 12.9 0.00 0.00 0.00 83 1019.6
20200228111115 13 247 4.8 6.4 0.00 0.00 0.00 83 1019.5
20200228110115 13 270 6.4 9.7 0.00 0.00 0.00 82 1019.4
20200228105115 13 225 3.2 6.4 0.00 0.00 0.00 84 1019.4
20200228104115 12 247 3.2 4.8 0.00 0.00 0.00 85 1019.4